Time;durP1;ratioP1;P1;durP2;ratioP2;P2;SDS_P1;SDS_P2;PMS_P1;PMS_P2;Temp;Humidity;BMP_temperature;BMP_pressure;BME280_temperature;BME280_humidity;BME280_pressure;Samples;Min_cycle;Max_cycle;Signal;HPM_P1;HPM_P2
2023/05/08 00:01:52;;;;;;;;;;;;;;;13.76;100.00;96101.88;5089250;28;19932;-75
2023/05/08 00:04:19;;;;;;;;;;;;;;;13.77;100.00;96098.31;5081999;28;20015;-75
2023/05/08 00:06:45;;;;;;;;;;;;;;;13.76;100.00;96099.25;5088219;28;20402;-75
2023/05/08 00:09:13;;;;;;;;;;;;;;;13.75;100.00;96102.78;5082886;28;19928;-73
2023/05/08 00:11:39;;;;;;;;;;;;;;;13.71;100.00;96102.16;5089673;28;19924;-73
2023/05/08 00:14:05;;;;;;;;;;;;;;;13.70;100.00;96110.91;5085561;28;19924;-73
2023/05/08 00:16:32;;;;;;;;;;;;;;;13.65;100.00;96107.00;5092523;28;20283;-73
2023/05/08 00:18:59;;;;;;;;;;;;;;;13.63;100.00;96107.06;5086772;28;19933;-73
2023/05/08 00:21:25;;;;;;;;;;;;;;;13.63;100.00;96103.66;5085366;28;19967;-73
2023/05/08 00:23:51;;;;;;;;;;;;;;;13.56;100.00;96103.22;5089790;28;19924;-73
2023/05/08 00:26:19;;;;;;;;;;;;;;;13.56;100.00;96109.25;5089266;28;19973;-73
2023/05/08 00:28:46;;;;;;;;;;;;;;;13.57;100.00;96110.09;5079247;28;19931;-73
2023/05/08 00:31:12;;;;;;;;;;;;;;;13.55;100.00;96109.38;5087833;28;19928;-73
2023/05/08 00:33:39;;;;;;;;;;;;;;;13.51;100.00;96103.56;5085484;28;20428;-73
2023/05/08 00:36:05;;;;;;;;;;;;;;;13.44;100.00;96104.91;5085818;28;19928;-73
2023/05/08 00:38:32;;;;;;;;;;;;;;;13.49;100.00;96110.63;5081326;28;19924;-73
2023/05/08 00:40:59;;;;;;;;;;;;;;;13.53;100.00;96108.66;5079283;28;20379;-73
2023/05/08 00:43:27;;;;;;;;;;;;;;;13.51;100.00;96111.38;5083435;28;20530;-73
2023/05/08 00:45:54;;;;;;;;;;;;;;;13.53;100.00;96113.84;5079797;28;20014;-73
2023/05/08 00:48:21;;;;;;;;;;;;;;;13.53;100.00;96111.25;5080902;28;19928;-73
2023/05/08 00:50:47;;;;;;;;;;;;;;;13.53;100.00;96112.09;5092805;28;20333;-73
2023/05/08 00:53:14;;;;;;;;;;;;;;;13.58;100.00;96113.56;5093359;28;19989;-73
2023/05/08 00:55:40;;;;;;;;;;;;;;;13.56;100.00;96109.25;5086026;28;19947;-76
2023/05/08 00:58:07;;;;;;;;;;;;;;;13.59;100.00;96110.00;5084711;28;19929;-75
2023/05/08 01:00:34;;;;;;;;;;;;;;;13.55;100.00;96112.00;5081181;28;20386;-75
2023/05/08 01:03:01;;;;;;;;;;;;;;;13.53;100.00;96117.31;5090476;28;19928;-75
2023/05/08 01:05:27;;;;;;;;;;;;;;;13.55;100.00;96112.00;5092941;28;20025;-75
2023/05/08 01:07:53;;;;;;;;;;;;;;;13.56;100.00;96116.25;5088444;28;20397;-75
2023/05/08 01:10:20;;;;;;;;;;;;;;;13.62;100.00;96115.00;5090320;28;19924;-75
2023/05/08 01:12:49;;;;;;;;;;;;;;;13.72;100.00;96110.78;5090666;28;20052;-75
2023/05/08 01:15:18;;;;;;;;;;;;;;;13.97;100.00;96112.53;5087453;28;19931;-75
2023/05/08 01:17:52;;;;;;;;;;;;;;;13.75;100.00;96111.41;5083309;28;19950;-75
2023/05/08 01:20:23;;;;;;;;;;;;;;;13.58;100.00;96118.75;5086933;28;19924;-75
2023/05/08 01:23:07;;;;;;;;;;;;;;;13.51;100.00;96120.94;5077318;28;19928;-75
2023/05/08 01:25:46;;;;;;;;;;;;;;;13.46;100.00;96117.81;5085178;28;19974;-75
2023/05/08 01:28:21;;;;;;;;;;;;;;;13.45;100.00;96116.16;5086693;28;19931;-75
2023/05/08 01:31:05;;;;;;;;;;;;;;;13.43;100.00;96112.84;5081727;28;19931;-75
2023/05/08 01:33:36;;;;;;;;;;;;;;;13.44;100.00;96112.72;5088554;28;19931;-75
2023/05/08 01:36:10;;;;;;;;;;;;;;;13.44;100.00;96110.13;5081661;28;19969;-75
2023/05/08 01:38:40;;;;;;;;;;;;;;;13.46;100.00;96108.25;5083637;28;19969;-75
2023/05/08 01:41:08;;;;;;;;;;;;;;;13.46;100.00;96115.22;5079723;28;20312;-75
2023/05/08 01:43:39;;;;;;;;;;;;;;;13.47;100.00;96112.53;5079354;28;19970;-75
2023/05/08 01:46:08;;;;;;;;;;;;;;;13.48;100.00;96113.34;5079474;28;19925;-75
2023/05/08 01:48:41;;;;;;;;;;;;;;;13.48;100.00;96114.16;5078892;28;19925;-75
2023/05/08 01:51:11;;;;;;;;;;;;;;;13.49;100.00;96120.19;5085785;28;19989;-75
2023/05/08 01:53:41;;;;;;;;;;;;;;;13.45;100.00;96114.38;5083906;28;19925;-75
2023/05/08 01:56:10;;;;;;;;;;;;;;;13.45;100.00;96122.19;5084744;28;20377;-75
2023/05/08 01:58:37;;;;;;;;;;;;;;;13.44;100.00;96123.13;5078903;28;20031;-75
2023/05/08 02:01:03;;;;;;;;;;;;;;;13.46;100.00;96123.00;5085091;28;19978;-75
2023/05/08 02:03:31;;;;;;;;;;;;;;;13.45;100.00;96126.56;5082654;28;20373;-75
2023/05/08 02:06:00;;;;;;;;;;;;;;;13.45;100.00;96121.34;5083000;28;19978;-75
2023/05/08 02:08:29;;;;;;;;;;;;;;;13.43;100.00;96128.44;5081157;28;19970;-75
2023/05/08 02:10:56;;;;;;;;;;;;;;;13.36;100.00;96122.00;5080691;28;19924;-75
2023/05/08 02:13:22;;;;;;;;;;;;;;;13.26;100.00;96122.59;5083039;28;19924;-75
2023/05/08 02:15:49;;;;;;;;;;;;;;;13.17;100.00;96127.59;5086934;28;19928;-75
2023/05/08 02:18:18;;;;;;;;;;;;;;;13.09;100.00;96122.91;5079278;28;19925;-75
2023/05/08 02:20:44;;;;;;;;;;;;;;;13.06;100.00;96129.13;5074990;28;19929;-75
2023/05/08 02:23:13;;;;;;;;;;;;;;;13.08;100.00;96127.25;5082940;28;19933;-75
2023/05/08 02:25:40;;;;;;;;;;;;;;;13.03;100.00;96123.31;5082049;28;19928;-75
2023/05/08 02:28:06;;;;;;;;;;;;;;;12.98;100.00;96138.38;5078279;28;19974;-75
2023/05/08 02:30:33;;;;;;;;;;;;;;;12.87;100.00;96130.44;5076905;28;19932;-75
2023/05/08 02:33:00;;;;;;;;;;;;;;;12.78;100.00;96131.88;5086749;28;19978;-75
2023/05/08 02:35:29;;;;;;;;;;;;;;;12.78;100.00;96130.13;5089354;28;19931;-75
2023/05/08 02:37:56;;;;;;;;;;;;;;;12.76;100.00;96131.16;5089613;28;19924;-75
2023/05/08 02:40:25;;;;;;;;;;;;;;;12.78;100.00;96126.69;5086556;28;19924;-75
2023/05/08 02:42:52;;;;;;;;;;;;;;;12.77;100.00;96125.03;5084380;28;19928;-75
2023/05/08 02:45:18;;;;;;;;;;;;;;;12.67;100.00;96130.00;5083723;28;19924;-75
2023/05/08 02:47:47;;;;;;;;;;;;;;;12.58;100.00;96130.59;5077754;28;20015;-75
2023/05/08 02:50:16;;;;;;;;;;;;;;;12.53;100.00;96133.50;5086381;28;20007;-75
2023/05/08 02:52:44;;;;;;;;;;;;;;;12.55;100.00;96142.03;5090119;28;20386;-75
2023/05/08 02:55:15;;;;;;;;;;;;;;;12.67;100.00;96137.78;5083412;28;20390;-75
2023/05/08 02:57:46;;;;;;;;;;;;;;;12.79;100.00;96138.75;5089686;28;20341;-75
2023/05/08 03:00:17;;;;;;;;;;;;;;;12.64;100.00;96132.78;5079823;28;20366;-75
2023/05/08 03:02:44;;;;;;;;;;;;;;;12.69;100.00;96130.72;5085896;28;20299;-75
2023/05/08 03:05:15;;;;;;;;;;;;;;;12.63;100.00;96132.91;5085231;28;21192;-75
2023/05/08 03:07:43;;;;;;;;;;;;;;;12.64;100.00;96126.75;5082623;28;19974;-75
2023/05/08 03:10:11;;;;;;;;;;;;;;;12.75;100.00;96122.50;5086532;28;19924;-75
2023/05/08 03:12:40;;;;;;;;;;;;;;;12.84;100.00;96123.69;5088193;28;19924;-75
2023/05/08 03:15:11;;;;;;;;;;;;;;;12.92;100.00;96124.00;5084705;28;19928;-75
2023/05/08 03:17:39;;;;;;;;;;;;;;;13.04;100.00;96128.38;5080548;28;19985;-75
2023/05/08 03:20:08;;;;;;;;;;;;;;;13.12;100.00;96130.47;5074292;28;19924;-75
2023/05/08 03:22:35;;;;;;;;;;;;;;;13.14;100.00;96125.19;5085881;28;20007;-75
2023/05/08 03:25:03;;;;;;;;;;;;;;;13.17;100.00;96133.63;5084810;28;19973;-75
2023/05/08 03:27:30;;;;;;;;;;;;;;;13.14;100.00;96127.78;5079981;28;19925;-75
2023/05/08 03:29:58;;;;;;;;;;;;;;;13.11;100.00;96125.38;5081364;28;19950;-75
2023/05/08 03:32:27;;;;;;;;;;;;;;;13.08;100.00;96127.25;5083520;28;20016;-76
2023/05/08 03:34:53;;;;;;;;;;;;;;;13.05;100.00;96126.63;5081340;28;19924;-75
2023/05/08 03:37:20;;;;;;;;;;;;;;;13.04;100.00;96130.16;5085826;28;19925;-75
2023/05/08 03:39:46;;;;;;;;;;;;;;;13.05;100.00;96131.81;5081537;28;19973;-75
2023/05/08 03:42:20;;;;;;;;;;;;;;;13.09;100.00;96130.72;5085841;28;19978;-75
2023/05/08 03:44:46;;;;;;;;;;;;;;;13.10;100.00;96126.34;5067391;28;19975;-75
2023/05/08 03:47:13;;;;;;;;;;;;;;;13.05;100.00;96119.69;5076544;28;19924;-75
2023/05/08 03:49:40;;;;;;;;;;;;;;;13.04;100.00;96118.00;5090671;28;19947;-75
2023/05/08 03:52:07;;;;;;;;;;;;;;;12.96;100.00;96122.88;5093862;28;20315;-75
2023/05/08 03:54:33;;;;;;;;;;;;;;;12.92;100.00;96128.38;5089117;28;20436;-74
2023/05/08 03:56:59;;;;;;;;;;;;;;;12.87;100.00;96136.50;5093097;28;19928;-75
2023/05/08 03:59:29;;;;;;;;;;;;;;;12.88;100.00;96132.13;5087728;28;19973;-75
2023/05/08 04:01:59;;;;;;;;;;;;;;;12.84;100.00;96128.91;5088356;28;19928;-75
2023/05/08 04:04:30;;;;;;;;;;;;;;;12.83;100.00;96128.06;5080004;28;19981;-73
2023/05/08 04:07:01;;;;;;;;;;;;;;;12.87;100.00;96135.63;5094767;28;19935;-73
2023/05/08 04:09:31;;;;;;;;;;;;;;;12.89;100.00;96137.22;5086591;28;19945;-74
2023/05/08 04:12:02;;;;;;;;;;;;;;;12.89;100.00;96136.38;5082654;28;19925;-75
2023/05/08 04:14:30;;;;;;;;;;;;;;;12.88;100.00;96138.16;5078767;28;19990;-75
2023/05/08 04:17:00;;;;;;;;;;;;;;;12.98;100.00;96139.22;5090688;28;19977;-77
2023/05/08 04:19:28;;;;;;;;;;;;;;;13.03;100.00;96141.50;5084522;28;19929;-77
2023/05/08 04:21:56;;;;;;;;;;;;;;;13.07;100.00;96146.41;5084970;28;19928;-77
2023/05/08 04:24:25;;;;;;;;;;;;;;;13.11;100.00;96144.41;5084573;28;19982;-78
2023/05/08 04:26:51;;;;;;;;;;;;;;;13.12;100.00;96147.84;5094746;28;19989;-76
2023/05/08 04:29:18;;;;;;;;;;;;;;;13.01;100.00;96153.75;5085257;28;19933;-76
2023/05/08 04:31:45;;;;;;;;;;;;;;;12.88;100.00;96158.13;5081964;28;19924;-75
2023/05/08 04:34:12;;;;;;;;;;;;;;;12.82;100.00;96156.75;5084362;28;19936;-76
2023/05/08 04:36:38;;;;;;;;;;;;;;;12.82;100.00;96154.97;5091210;28;19978;-76
2023/05/08 04:39:04;;;;;;;;;;;;;;;12.80;100.00;96158.63;5084274;28;19925;-75
2023/05/08 04:41:32;;;;;;;;;;;;;;;12.90;100.00;96154.47;5077096;28;19936;-76
2023/05/08 04:43:58;;;;;;;;;;;;;;;12.90;100.00;96162.25;5089426;28;20330;-74
2023/05/08 04:46:25;;;;;;;;;;;;;;;12.90;100.00;96166.63;5070698;28;19984;-76
2023/05/08 04:48:51;;;;;;;;;;;;;;;12.90;100.00;96171.84;5088184;28;19986;-75
2023/05/08 04:51:17;;;;;;;;;;;;;;;12.93;100.00;96171.63;5087037;28;20011;-76
2023/05/08 04:53:44;;;;;;;;;;;;;;;12.92;100.00;96168.22;5087792;28;19986;-76
2023/05/08 04:56:10;;;;;;;;;;;;;;;12.96;100.00;96172.28;5083628;28;19935;-76
2023/05/08 04:58:37;;;;;;;;;;;;;;;13.02;100.00;96171.88;5066254;28;19982;-76
2023/05/08 05:01:04;;;;;;;;;;;;;;;13.04;100.00;96170.00;5080957;28;20271;-76
2023/05/08 05:03:31;;;;;;;;;;;;;;;12.98;100.00;96175.63;5077495;28;19935;-77
2023/05/08 05:05:57;;;;;;;;;;;;;;;12.94;100.00;96178.50;5085485;28;19971;-76
2023/05/08 05:08:23;;;;;;;;;;;;;;;12.97;100.00;96180.91;5079249;28;19932;-77
2023/05/08 05:10:50;;;;;;;;;;;;;;;13.01;100.00;96185.78;5077924;28;19987;-75
2023/05/08 05:13:16;;;;;;;;;;;;;;;13.06;100.00;96177.72;5079731;28;19932;-75
2023/05/08 05:15:44;;;;;;;;;;;;;;;13.12;100.00;96177.28;5083119;28;19924;-76
2023/05/08 05:18:10;;;;;;;;;;;;;;;13.17;100.00;96177.84;5091758;28;19924;-77
2023/05/08 05:20:36;;;;;;;;;;;;;;;13.23;100.00;96179.16;5089834;28;19931;-77
2023/05/08 05:23:03;;;;;;;;;;;;;;;13.26;100.00;96182.44;5089543;28;20010;-76
2023/05/08 05:25:29;;;;;;;;;;;;;;;13.22;100.00;96186.16;5086323;28;19924;-76
2023/05/08 05:27:56;;;;;;;;;;;;;;;13.22;100.00;96183.53;5089617;28;20011;-76
2023/05/08 05:30:22;;;;;;;;;;;;;;;13.24;100.00;96186.09;5083166;28;19925;-77
2023/05/08 05:32:50;;;;;;;;;;;;;;;13.28;100.00;96187.56;5088026;28;20352;-76
2023/05/08 05:35:16;;;;;;;;;;;;;;;13.27;100.00;96189.31;5079011;28;19936;-77
2023/05/08 05:37:42;;;;;;;;;;;;;;;13.31;100.00;96182.13;5087310;28;19924;-76
2023/05/08 05:40:09;;;;;;;;;;;;;;;13.34;100.00;96186.28;5082894;28;19924;-77
2023/05/08 05:42:35;;;;;;;;;;;;;;;13.25;100.00;96192.94;5077412;28;19935;-77
2023/05/08 05:45:01;;;;;;;;;;;;;;;13.17;100.00;96192.59;5086714;28;20344;-77
2023/05/08 05:47:28;;;;;;;;;;;;;;;13.18;100.00;96192.50;5089561;28;19985;-77
2023/05/08 05:49:56;;;;;;;;;;;;;;;13.24;100.00;96191.28;5089245;28;19988;-76
2023/05/08 05:52:23;;;;;;;;;;;;;;;13.27;100.00;96196.28;5090983;28;20356;-77
2023/05/08 05:54:49;;;;;;;;;;;;;;;13.31;100.00;96188.19;5088190;28;19925;-76
2023/05/08 05:57:15;;;;;;;;;;;;;;;13.35;100.00;96187.94;5088213;28;19929;-76
2023/05/08 05:59:42;;;;;;;;;;;;;;;13.38;100.00;96192.94;5087355;28;20375;-76
2023/05/08 06:02:09;;;;;;;;;;;;;;;13.25;100.00;96192.94;5088760;28;19924;-76
2023/05/08 06:04:35;;;;;;;;;;;;;;;13.26;100.00;96199.81;5079711;28;19932;-76
2023/05/08 06:07:03;;;;;;;;;;;;;;;13.21;100.00;96197.50;5077837;28;20332;-77
2023/05/08 06:09:29;;;;;;;;;;;;;;;13.24;100.00;96205.13;5084001;28;19932;-76
2023/05/08 06:11:55;;;;;;;;;;;;;;;13.21;100.00;96202.69;5088257;28;19930;-76
2023/05/08 06:14:21;;;;;;;;;;;;;;;13.31;100.00;96205.53;5085826;28;20382;-77
2023/05/08 06:16:48;;;;;;;;;;;;;;;13.35;100.00;96203.56;5071953;28;19929;-76
2023/05/08 06:19:14;;;;;;;;;;;;;;;13.35;100.00;96212.22;5080651;28;19929;-76
2023/05/08 06:21:40;;;;;;;;;;;;;;;13.31;100.00;96209.00;5086434;28;19989;-76
2023/05/08 06:24:08;;;;;;;;;;;;;;;13.36;100.00;96200.88;5089734;28;19928;-76
2023/05/08 06:26:34;;;;;;;;;;;;;;;13.31;100.00;96210.72;5084833;28;19924;-77
2023/05/08 06:29:01;;;;;;;;;;;;;;;13.38;100.00;96217.19;5090214;28;19932;-76
2023/05/08 06:31:27;;;;;;;;;;;;;;;13.35;100.00;96213.97;5083343;28;19928;-76
2023/05/08 06:33:53;;;;;;;;;;;;;;;13.28;100.00;96216.16;5084420;28;19939;-76
2023/05/08 06:36:20;;;;;;;;;;;;;;;13.34;100.00;96217.50;5084176;28;19924;-76
2023/05/08 06:38:46;;;;;;;;;;;;;;;13.39;100.00;96216.28;5083302;28;19973;-76
2023/05/08 06:41:13;;;;;;;;;;;;;;;13.40;100.00;96215.34;5083522;28;19973;-76
2023/05/08 06:43:40;;;;;;;;;;;;;;;13.44;100.00;96214.19;5091700;28;19931;-77
2023/05/08 06:46:06;;;;;;;;;;;;;;;13.56;100.00;96212.53;5083616;28;19953;-77
2023/05/08 06:48:32;;;;;;;;;;;;;;;13.63;100.00;96213.78;5083884;28;19928;-76
2023/05/08 06:50:58;;;;;;;;;;;;;;;13.65;100.00;96213.69;5086488;28;20408;-76
2023/05/08 06:53:25;;;;;;;;;;;;;;;13.71;100.00;96208.88;5087475;28;20407;-76
2023/05/08 06:55:51;;;;;;;;;;;;;;;13.65;100.00;96211.09;5077366;28;19982;-77
2023/05/08 06:58:19;;;;;;;;;;;;;;;13.78;100.00;96217.94;5085084;28;19924;-77
2023/05/08 07:00:45;;;;;;;;;;;;;;;13.89;100.00;96211.16;5080929;28;20424;-77
2023/05/08 07:03:11;;;;;;;;;;;;;;;13.96;100.00;96209.81;5080174;28;19928;-77
2023/05/08 07:05:37;;;;;;;;;;;;;;;13.98;100.00;96211.38;5082841;28;19928;-77
2023/05/08 07:08:04;;;;;;;;;;;;;;;13.94;100.00;96211.69;5083290;28;19936;-76
2023/05/08 07:10:30;;;;;;;;;;;;;;;14.08;100.00;96216.75;5070869;28;19924;-77
2023/05/08 07:12:56;;;;;;;;;;;;;;;14.05;100.00;96214.38;5075510;28;20607;-77
2023/05/08 07:15:24;;;;;;;;;;;;;;;14.00;100.00;96212.09;5082053;28;19934;-75
2023/05/08 07:17:50;;;;;;;;;;;;;;;13.91;100.00;96212.75;5082651;28;19980;-77
2023/05/08 07:20:17;;;;;;;;;;;;;;;13.94;100.00;96220.34;5085843;28;19970;-76
2023/05/08 07:22:43;;;;;;;;;;;;;;;14.02;100.00;96220.66;5082708;28;19928;-75
2023/05/08 07:25:09;;;;;;;;;;;;;;;14.16;100.00;96217.06;5075980;28;19970;-76
2023/05/08 07:27:36;;;;;;;;;;;;;;;14.26;100.00;96212.88;5087450;28;19985;-76
2023/05/08 07:30:03;;;;;;;;;;;;;;;14.33;100.00;96222.88;5084608;28;19970;-77
2023/05/08 07:32:31;;;;;;;;;;;;;;;14.26;100.00;96222.47;5087133;28;20028;-77
2023/05/08 07:34:57;;;;;;;;;;;;;;;14.26;100.00;96219.88;5084691;28;19998;-77
2023/05/08 07:37:23;;;;;;;;;;;;;;;14.31;100.00;96222.13;5085228;28;19977;-76
2023/05/08 07:39:49;;;;;;;;;;;;;;;14.45;100.00;96224.59;5085249;28;20337;-76
2023/05/08 07:42:17;;;;;;;;;;;;;;;14.49;100.00;96219.09;5075959;28;20348;-76
2023/05/08 07:44:43;;;;;;;;;;;;;;;14.42;100.00;96223.03;5073771;28;20460;-76
2023/05/08 07:47:10;;;;;;;;;;;;;;;14.51;100.00;96226.81;5072813;28;19931;-76
2023/05/08 07:49:38;;;;;;;;;;;;;;;14.81;100.00;96228.16;5079939;28;19929;-76
2023/05/08 07:52:04;;;;;;;;;;;;;;;14.67;100.00;96227.38;5073970;28;19924;-75
2023/05/08 07:54:30;;;;;;;;;;;;;;;14.90;100.00;96228.31;5087612;28;19928;-76
2023/05/08 07:56:57;;;;;;;;;;;;;;;14.86;100.00;96229.47;5081936;28;19924;-75
2023/05/08 07:59:23;;;;;;;;;;;;;;;15.00;100.00;96225.88;5087146;28;19928;-76
2023/05/08 08:01:49;;;;;;;;;;;;;;;14.90;100.00;96230.91;5084012;28;19924;-76
2023/05/08 08:04:15;;;;;;;;;;;;;;;14.89;100.00;96233.66;5074378;28;19939;-76
2023/05/08 08:06:43;;;;;;;;;;;;;;;14.92;100.00;96236.03;5079855;28;19936;-75
2023/05/08 08:09:10;;;;;;;;;;;;;;;14.93;100.00;96232.47;5076677;28;19932;-76
2023/05/08 08:11:36;;;;;;;;;;;;;;;14.99;100.00;96232.88;5072345;28;19981;-75
2023/05/08 08:14:02;;;;;;;;;;;;;;;14.77;100.00;96236.22;5081894;28;19978;-76
2023/05/08 08:16:29;;;;;;;;;;;;;;;14.51;100.00;96234.63;5064004;28;19928;-75
2023/05/08 08:18:55;;;;;;;;;;;;;;;14.32;100.00;96232.47;5071992;28;19932;-75
2023/05/08 08:21:21;;;;;;;;;;;;;;;14.26;100.00;96227.69;5079227;28;19930;-76
2023/05/08 08:23:49;;;;;;;;;;;;;;;14.18;100.00;96227.38;5067180;28;19928;-75
2023/05/08 08:26:15;;;;;;;;;;;;;;;14.09;100.00;96230.63;5070926;28;20417;-76
2023/05/08 08:28:42;;;;;;;;;;;;;;;13.95;100.00;96235.03;5080970;28;19932;-75
2023/05/08 08:31:08;;;;;;;;;;;;;;;13.93;100.00;96241.25;5081938;28;19931;-75
2023/05/08 08:33:35;;;;;;;;;;;;;;;13.89;100.00;96235.44;5081639;28;19990;-76
2023/05/08 08:36:01;;;;;;;;;;;;;;;13.83;100.00;96237.63;5086091;28;19928;-76
2023/05/08 08:38:27;;;;;;;;;;;;;;;13.73;100.00;96238.25;5084170;28;19928;-76
2023/05/08 08:40:55;;;;;;;;;;;;;;;13.66;100.00;96238.78;5091022;28;20431;-76
2023/05/08 08:43:21;;;;;;;;;;;;;;;13.59;100.00;96232.31;5084611;28;19936;-76
2023/05/08 08:45:47;;;;;;;;;;;;;;;13.62;100.00;96232.13;5072219;28;19936;-76
2023/05/08 08:48:15;;;;;;;;;;;;;;;13.61;100.00;96235.63;5081729;28;20332;-76
2023/05/08 08:50:42;;;;;;;;;;;;;;;13.66;100.00;96234.41;5090069;28;20387;-76
2023/05/08 08:53:11;;;;;;;;;;;;;;;13.63;100.00;96231.19;5093384;28;19924;-76
2023/05/08 08:55:39;;;;;;;;;;;;;;;13.80;100.00;96234.31;5086926;28;19924;-76
2023/05/08 08:58:17;;;;;;;;;;;;;;;13.72;100.00;96233.13;5092340;28;19935;-76
2023/05/08 09:00:44;;;;;;;;;;;;;;;13.71;100.00;96236.69;5085675;28;19977;-76
2023/05/08 09:03:10;;;;;;;;;;;;;;;13.74;100.00;96244.28;5091158;28;19932;-77
2023/05/08 09:05:37;;;;;;;;;;;;;;;13.69;100.00;96244.63;5084552;28;19974;-76
2023/05/08 09:08:04;;;;;;;;;;;;;;;13.60;100.00;96245.22;5090769;28;19924;-76
2023/05/08 09:10:30;;;;;;;;;;;;;;;13.48;100.00;96240.84;5088366;28;19924;-76
2023/05/08 09:12:56;;;;;;;;;;;;;;;13.51;100.00;96240.66;5082737;28;19928;-76
2023/05/08 09:15:24;;;;;;;;;;;;;;;13.55;100.00;96242.09;5084662;28;19932;-76
2023/05/08 09:17:50;;;;;;;;;;;;;;;13.50;100.00;96245.03;5090915;28;19932;-76
2023/05/08 09:20:16;;;;;;;;;;;;;;;13.46;100.00;96242.69;5087008;28;19970;-76
2023/05/08 09:22:43;;;;;;;;;;;;;;;13.47;100.00;96253.03;5089308;28;19977;-76
2023/05/08 09:25:10;;;;;;;;;;;;;;;13.44;100.00;96242.81;5082353;28;20012;-76
2023/05/08 09:27:36;;;;;;;;;;;;;;;13.52;100.00;96250.09;5074794;28;19948;-76
2023/05/08 09:30:03;;;;;;;;;;;;;;;13.61;100.00;96246.91;5086824;28;19930;-76
2023/05/08 09:32:32;;;;;;;;;;;;;;;13.76;100.00;96250.25;5089433;28;19925;-76
2023/05/08 09:34:58;;;;;;;;;;;;;;;13.87;100.00;96252.09;5086649;28;19977;-76
2023/05/08 09:37:25;;;;;;;;;;;;;;;14.03;100.00;96257.94;5092559;28;19931;-76
2023/05/08 09:39:51;;;;;;;;;;;;;;;14.22;100.00;96252.28;5080739;28;19928;-76
2023/05/08 09:42:17;;;;;;;;;;;;;;;14.25;100.00;96258.13;5088647;28;20015;-76
2023/05/08 09:44:45;;;;;;;;;;;;;;;14.27;100.00;96258.81;5085962;28;19924;-76
2023/05/08 09:47:12;;;;;;;;;;;;;;;14.27;100.00;96258.00;5087527;28;19928;-76
2023/05/08 09:49:40;;;;;;;;;;;;;;;14.25;100.00;96265.94;5073457;28;20013;-77
2023/05/08 09:52:06;;;;;;;;;;;;;;;14.34;100.00;96266.22;5082268;28;20019;-76
2023/05/08 09:54:33;;;;;;;;;;;;;;;14.26;100.00;96262.38;5090131;28;19928;-77
2023/05/08 09:56:59;;;;;;;;;;;;;;;14.19;100.00;96255.94;5082798;28;19924;-77
2023/05/08 09:59:26;;;;;;;;;;;;;;;14.19;100.00;96263.75;5082058;28;19932;-77
2023/05/08 10:01:52;;;;;;;;;;;;;;;14.56;100.00;96269.00;5091003;28;20003;-77
2023/05/08 10:04:30;;;;;;;;;;;;;;;14.58;100.00;96272.34;5084346;28;20383;-76
2023/05/08 10:06:58;;;;;;;;;;;;;;;14.30;100.00;96268.22;5074086;28;19928;-77
2023/05/08 10:09:24;;;;;;;;;;;;;;;14.39;100.00;96269.34;5075173;28;20333;-76
2023/05/08 10:11:52;;;;;;;;;;;;;;;14.40;100.00;96271.00;5092486;28;19973;-76
2023/05/08 10:14:18;;;;;;;;;;;;;;;14.52;100.00;96271.00;5084042;28;19924;-76
2023/05/08 10:16:45;;;;;;;;;;;;;;;14.41;100.00;96275.28;5091927;28;19928;-76
2023/05/08 10:19:13;;;;;;;;;;;;;;;14.34;100.00;96267.03;5077696;28;19928;-77
2023/05/08 10:21:41;;;;;;;;;;;;;;;14.42;100.00;96277.75;5090371;28;19983;-77
2023/05/08 10:24:13;;;;;;;;;;;;;;;14.39;100.00;96271.97;5084204;28;20007;-77
2023/05/08 10:26:41;;;;;;;;;;;;;;;14.37;100.00;96271.22;5083081;28;19924;-76
2023/05/08 10:29:13;;;;;;;;;;;;;;;14.44;100.00;96273.28;5083724;28;19928;-77
2023/05/08 10:31:42;;;;;;;;;;;;;;;14.45;100.00;96266.31;5089240;28;19928;-76
2023/05/08 10:34:13;;;;;;;;;;;;;;;14.52;100.00;96270.19;5085007;28;19924;-77
2023/05/08 10:36:39;;;;;;;;;;;;;;;14.52;100.00;96281.44;5081736;28;19924;-77
2023/05/08 10:39:06;;;;;;;;;;;;;;;14.60;100.00;96272.25;5080528;28;19939;-77
2023/05/08 10:41:35;;;;;;;;;;;;;;;14.64;100.00;96269.28;5079055;28;19924;-76
2023/05/08 10:44:02;;;;;;;;;;;;;;;14.67;100.00;96263.03;5074905;28;19929;-77
2023/05/08 10:46:30;;;;;;;;;;;;;;;14.85;100.00;96271.34;5086626;28;20394;-76
2023/05/08 10:49:00;;;;;;;;;;;;;;;14.73;100.00;96268.66;5079828;28;19970;-76
2023/05/08 10:51:33;;;;;;;;;;;;;;;14.68;100.00;96264.69;5091667;28;19997;-76
2023/05/08 10:54:01;;;;;;;;;;;;;;;14.66;100.00;96261.38;5086868;28;19924;-75
2023/05/08 10:56:28;;;;;;;;;;;;;;;14.72;100.00;96264.41;5083438;28;19928;-77
2023/05/08 10:58:59;;;;;;;;;;;;;;;14.71;100.00;96264.50;5084353;28;19970;-76
2023/05/08 11:01:26;;;;;;;;;;;;;;;14.70;100.00;96248.00;5081416;28;20039;-76
2023/05/08 11:03:54;;;;;;;;;;;;;;;14.50;100.00;96257.25;5084412;28;19925;-76
2023/05/08 11:06:35;;;;;;;;;;;;;;;14.54;100.00;96259.66;5087259;28;20341;-77
2023/05/08 11:09:01;;;;;;;;;;;;;;;14.62;100.00;96257.34;5078827;28;19928;-76
2023/05/08 11:11:29;;;;;;;;;;;;;;;14.68;100.00;96254.28;5089700;28;20326;-76
2023/05/08 11:13:59;;;;;;;;;;;;;;;14.83;100.00;96254.94;5083114;28;19963;-76
2023/05/08 11:16:44;;;;;;;;;;;;;;;14.80;100.00;96248.19;5088770;28;20019;-76
2023/05/08 11:19:17;;;;;;;;;;;;;;;14.82;100.00;96243.69;5084373;28;19999;-76
2023/05/08 11:21:58;;;;;;;;;;;;;;;14.93;100.00;96251.56;5090276;28;20009;-77
2023/05/08 11:24:33;;;;;;;;;;;;;;;14.77;100.00;96251.03;5078429;28;19987;-76
2023/05/08 11:27:00;;;;;;;;;;;;;;;14.83;100.00;96253.19;5084056;28;19928;-76
2023/05/08 11:29:26;;;;;;;;;;;;;;;14.97;100.00;96246.97;5080269;28;20340;-75
2023/05/08 11:31:53;;;;;;;;;;;;;;;14.94;100.00;96239.34;5085779;28;20452;-76
2023/05/08 11:34:37;;;;;;;;;;;;;;;14.80;100.00;96240.38;5082149;28;20375;-77
2023/05/08 11:37:08;;;;;;;;;;;;;;;14.84;100.00;96238.38;5090001;28;19935;-76
2023/05/08 11:39:34;;;;;;;;;;;;;;;14.88;100.00;96240.66;5082729;28;19932;-76
2023/05/08 11:42:15;;;;;;;;;;;;;;;15.03;100.00;96240.47;5085358;28;20341;-76
2023/05/08 11:44:42;;;;;;;;;;;;;;;15.28;100.00;96242.97;5081803;28;19936;-77
2023/05/08 11:47:09;;;;;;;;;;;;;;;15.36;100.00;96239.78;5085484;28;19928;-77
2023/05/08 11:49:36;;;;;;;;;;;;;;;15.38;100.00;96233.47;5080417;28;19932;-76
2023/05/08 11:52:04;;;;;;;;;;;;;;;15.81;100.00;96230.28;5088917;28;19924;-77
2023/05/08 11:54:33;;;;;;;;;;;;;;;15.65;100.00;96230.63;5084812;28;19928;-76
2023/05/08 11:57:00;;;;;;;;;;;;;;;15.86;100.00;96232.53;5081883;28;19937;-75
2023/05/08 11:59:26;;;;;;;;;;;;;;;15.61;100.00;96226.56;5078056;28;20374;-76
2023/05/08 12:01:53;;;;;;;;;;;;;;;15.68;100.00;96237.38;5085797;28;19928;-76
2023/05/08 12:04:19;;;;;;;;;;;;;;;15.63;100.00;96240.31;5079611;28;19929;-75
2023/05/08 12:06:47;;;;;;;;;;;;;;;16.08;100.00;96237.78;5083875;28;19928;-75
2023/05/08 12:09:14;;;;;;;;;;;;;;;16.03;100.00;96245.16;5075668;28;19924;-77
2023/05/08 12:11:42;;;;;;;;;;;;;;;16.23;100.00;96240.97;5090583;28;19924;-76
2023/05/08 12:14:09;;;;;;;;;;;;;;;16.40;100.00;96244.91;5087009;28;19959;-76
2023/05/08 12:16:36;;;;;;;;;;;;;;;16.33;100.00;96241.09;5083960;28;19928;-76
2023/05/08 12:19:02;;;;;;;;;;;;;;;15.60;100.00;96237.91;5080991;28;20007;-73
2023/05/08 12:21:28;;;;;;;;;;;;;;;15.71;100.00;96230.13;5085103;28;19977;-74
2023/05/08 12:23:55;;;;;;;;;;;;;;;15.93;100.00;96241.56;5088614;28;19930;-75
2023/05/08 12:26:21;;;;;;;;;;;;;;;16.18;100.00;96238.72;5093025;28;20023;-75
2023/05/08 12:28:54;;;;;;;;;;;;;;;16.11;100.00;96244.56;5074335;28;20024;-75
2023/05/08 12:31:20;;;;;;;;;;;;;;;15.64;100.00;96247.19;5085774;28;19944;-75
2023/05/08 12:33:47;;;;;;;;;;;;;;;15.82;100.00;96236.34;5078397;28;19936;-76
2023/05/08 12:36:14;;;;;;;;;;;;;;;16.03;100.00;96234.69;5091431;28;19970;-75
2023/05/08 12:38:40;;;;;;;;;;;;;;;15.89;100.00;96232.31;5087944;28;19933;-76